Latest Weather Observations for Lombadina

IDW60801

Issued at 7:33 pm WST Tuesday 24 May 2016 (issued every 30 minutes, with the page automatically refreshed every 10 minutes)

About weather observations | Map of weather stations | Latest weather observations for WA | Other Formats
Station Details ID: 503016 Name: LOMBADINA AIRSTRIP Lat: -16.52 Lon: 122.92 Height: 42.0 m
Data from the previous 72 hours. | See also: Recent months for locations in Western Australia
Date/Time
WST
Temp
°C
App
Temp
°C
Dew
Point
Rel
Hum
%
Delta-T
°C
Wind Press
QNH
hPa
Press
MSL
hPa
Rain
since 9 am
mm
Dir
 
Spd
km/h
Gust
km/h
Spd
kts
Gust
kts
24/07:30pm 24.7 29.0 23.3 92 1.0 WSW 6 9 3 5 1013.2 1013.0 0.0
24/07:00pm 25.1 29.5 23.5 91 1.1 SW 6 7 3 4 1013.0 1012.8 0.0
24/06:30pm 25.6 30.1 23.7 89 1.3 SW 6 9 3 5 1012.7 1012.5 0.0
24/06:00pm 26.1 30.7 23.8 87 1.6 WSW 6 11 3 6 1012.3 1012.1 0.0
24/05:30pm 26.7 31.2 23.6 83 2.1 WSW 6 11 3 6 1012.2 1012.0 0.0
24/05:00pm 27.5 31.8 23.3 78 2.9 WSW 6 11 3 6 1012.0 1011.7 0.0
24/04:30pm 28.0 31.9 22.9 74 3.5 W 7 13 4 7 1011.8 1011.5 0.0
24/04:00pm 28.8 32.3 22.8 70 4.1 WNW 9 17 5 9 1011.8 1011.5 0.0
24/03:30pm 28.6 31.2 22.6 70 4.1 NW 13 19 7 10 1011.8 1011.5 0.0
24/03:00pm 29.3 31.8 21.8 64 5.1 NW 11 17 6 9 1011.7 1011.4 0.0
24/02:30pm 29.6 31.7 21.0 60 5.7 NW 11 17 6 9 1011.7 1011.4 0.0
24/02:00pm 30.0 31.9 20.5 56 6.3 NW 11 17 6 9 1011.8 1011.5 0.0
24/01:30pm 30.4 32.5 20.9 57 6.3 NW 11 17 6 9 1011.9 1011.6 0.0
24/01:00pm 30.1 32.5 21.5 60 5.8 NW 11 17 6 9 1012.2 1012.0 0.0
24/12:30pm 30.4 33.5 21.5 59 6.0 NNE 7 17 4 9 1012.5 1012.3 0.0
24/12:00pm 29.4 32.0 20.5 58 5.9 E 7 13 4 7 1012.8 1012.6 0.0
24/11:30am 29.4 32.2 20.8 60 5.7 ENE 7 15 4 8 1013.2 1013.0 0.0
24/11:00am 29.9 32.6 20.7 57 6.1 ENE 7 15 4 8 1013.6 1013.4 0.0
24/10:30am 29.0 31.5 20.2 59 5.8 E 7 15 4 8 1013.7 1013.5 0.0
24/10:00am 28.7 31.6 20.7 62 5.3 E 6 11 3 6 1014.0 1013.8 0.0
24/09:30am 28.0 30.7 20.6 64 4.9 ESE 7 15 4 8 1014.2 1014.0 0.0
24/09:00am 27.0 29.9 20.6 68 4.2 ESE 6 11 3 6 1014.3 1014.1 0.0
24/08:30am 26.1 28.9 20.9 73 3.4 ESE 7 11 4 6 1014.3 1014.1 0.0
24/08:00am 25.2 28.3 21.1 78 2.7 SE 6 9 3 5 1014.3 1014.1 0.0
24/07:30am 23.7 26.9 20.6 83 2.0 SE 4 7 2 4 1014.2 1014.0 0.0
24/07:00am 22.3 25.5 20.6 90 1.1 SSE 4 7 2 4 1014.0 1013.8 0.0
24/06:30am 20.8 23.8 20.1 96 0.4 SSE 4 6 2 3 1013.7 1013.5 0.0
24/06:00am 20.7 23.2 19.9 95 0.5 SSE 6 7 3 4 1013.4 1013.2 0.0
24/05:30am 21.0 23.9 19.8 93 0.8 SSW 4 7 2 4 1013.2 1013.0 0.0
24/05:00am 22.3 25.2 19.8 86 1.6 SSE 4 7 2 4 1013.1 1012.9 0.0
24/04:30am 24.1 26.8 20.2 79 2.5 E 6 9 3 5 1012.9 1012.7 0.0
24/04:00am 24.6 27.3 20.7 79 2.6 E 7 13 4 7 1012.8 1012.6 0.0
24/03:30am 24.2 26.8 20.5 80 2.4 ESE 7 15 4 8 1012.9 1012.7 0.0
24/03:00am 24.4 27.0 20.5 79 2.5 ESE 7 15 4 8 1012.6 1012.4 0.0
24/02:30am 24.4 26.7 20.7 80 2.4 ESE 9 15 5 8 1012.7 1012.5 0.0
24/02:00am 24.2 26.7 20.3 79 2.5 ESE 7 15 4 8 1012.9 1012.7 0.0
24/01:30am 24.1 26.4 20.6 81 2.3 ESE 9 15 5 8 1013.0 1012.8 0.0
24/01:00am 23.9 26.1 20.4 81 2.3 ESE 9 19 5 10 1013.4 1013.2 0.0
24/12:30am 23.7 25.8 20.2 81 2.3 ESE 9 17 5 9 1013.5 1013.3 0.0
24/12:00am 23.7 25.3 20.0 80 2.4 ESE 11 20 6 11 1014.0 1013.8 0.0
 
Date/Time
WST
Temp
°C
App
Temp
°C
Dew
Point
Rel
Hum
%
Delta-T
°C
Wind Press
QNH
hPa
Press
MSL
hPa
Rain
since 9 am
mm
Dir
 
Spd
km/h
Gust
km/h
Spd
kts
Gust
kts
23/11:30pm 23.7 25.6 19.8 79 2.5 ESE 9 17 5 9 1014.3 1014.1 0.0
23/11:00pm 23.7 25.1 19.6 78 2.6 SE 11 19 6 10 1014.3 1014.1 0.0
23/10:30pm 23.8 24.7 19.3 76 2.9 ESE 13 26 7 14 1014.5 1014.3 0.0
23/10:00pm 23.8 24.2 19.1 75 3.0 SE 15 24 8 13 1014.5 1014.3 0.0
23/09:30pm 23.8 24.2 18.9 74 3.1 SE 15 24 8 13 1014.8 1014.6 0.0
23/09:00pm 23.8 24.2 18.9 74 3.1 SE 15 33 8 18 1014.9 1014.7 0.0
23/08:30pm 24.0 23.8 18.6 72 3.4 SE 17 35 9 19 1015.0 1014.8 0.0
23/08:00pm 24.1 24.2 19.2 74 3.1 SE 17 33 9 18 1014.9 1014.7 0.0
23/07:30pm 24.3 24.9 19.4 74 3.1 SE 15 26 8 14 1014.6 1014.4 0.0
23/07:00pm 24.4 24.5 19.2 73 3.3 SE 17 30 9 16 1014.4 1014.2 0.0
23/06:30pm 24.8 25.1 19.6 73 3.4 SE 17 32 9 17 1014.0 1013.8 0.0
23/06:00pm 25.1 25.4 19.7 72 3.5 SE 17 35 9 19 1013.8 1013.6 0.0
23/05:30pm 25.4 26.1 20.4 74 3.3 ESE 17 35 9 19 1013.4 1013.2 0.0
23/05:00pm 26.0 26.5 20.8 73 3.4 SE 19 33 10 18 1013.2 1013.0 0.0
23/04:30pm 26.6 26.5 20.7 70 3.9 ESE 22 37 12 20 1012.9 1012.7 0.0
23/04:00pm 27.4 28.4 21.0 68 4.2 ESE 17 37 9 20 1012.5 1012.3 0.0
23/03:30pm 27.4 27.8 21.0 68 4.2 ESE 20 37 11 20 1012.3 1012.1 0.0
23/03:00pm 28.1 29.2 21.9 69 4.2 ESE 19 35 10 19 1012.1 1011.9 0.0
23/02:30pm 28.3 29.6 21.6 67 4.5 ESE 17 30 9 16 1012.2 1012.0 0.0
23/02:00pm 28.0 28.8 21.8 69 4.2 SE 20 37 11 20 1012.4 1012.2 0.0
23/01:30pm 28.7 30.7 22.2 68 4.4 ESE 15 28 8 15 1012.3 1012.1 0.0
23/01:00pm 28.4 30.1 21.7 67 4.5 ESE 15 26 8 14 1012.5 1012.3 0.0
23/12:30pm 28.0 29.4 21.8 69 4.2 ESE 17 32 9 17 1013.0 1012.8 0.0
23/12:00pm 28.1 29.9 22.6 72 3.7 ESE 17 30 9 16 1013.6 1013.4 0.0
23/11:30am 28.5 30.1 21.5 66 4.7 ESE 15 33 8 18 1013.9 1013.7 0.0
23/11:00am 28.7 30.2 22.0 67 4.5 SE 17 33 9 18 1014.2 1014.0 0.0
23/10:30am 28.8 31.1 22.1 67 4.5 ESE 13 24 7 13 1014.5 1014.3 0.0
23/10:00am 28.5 30.7 21.8 67 4.5 SE 13 24 7 13 1014.6 1014.4 0.0
23/09:30am 28.6 30.1 19.8 59 5.8 SE 11 19 6 10 1014.8 1014.6 0.0
23/09:00am 28.2 30.1 19.7 60 5.5 SE 9 17 5 9 1014.8 1014.6 0.8
23/08:30am 28.0 29.8 18.7 57 6.0 SE 7 15 4 8 1014.8 1014.6 0.8
23/08:00am 26.0 29.4 20.1 70 3.8 S 2 6 1 3 1014.8 1014.6 0.8
23/07:30am 25.5 28.6 20.3 73 3.4 S 4 6 2 3 1014.5 1014.3 0.8
23/07:00am 25.5 28.2 19.4 69 3.9 SE 4 9 2 5 1014.2 1014.0 0.8
23/06:30am 25.7 27.8 19.3 67 4.1 SE 7 17 4 9 1014.2 1014.0 0.8
23/06:00am 24.5 27.7 20.4 78 2.7 S 4 7 2 4 1014.0 1013.8 0.8
23/05:30am 24.7 27.7 20.8 79 2.6 SSW 6 11 3 6 1013.5 1013.3 0.8
23/05:00am 24.9 28.6 21.4 81 2.3 SSW 4 7 2 4 1013.0 1012.8 0.8
23/04:30am 25.3 28.5 21.2 78 2.7 ESE 6 11 3 6 1012.6 1012.4 0.8
23/04:00am 25.1 27.9 20.8 77 2.8 E 7 13 4 7 1012.6 1012.4 0.8
23/03:30am 24.9 28.1 20.6 77 2.8 ESE 4 7 2 4 1012.8 1012.6 0.8
23/03:00am 25.0 27.5 20.3 75 3.1 ESE 7 11 4 6 1012.9 1012.7 0.8
23/02:30am 25.0 27.8 20.5 76 2.9 SSE 6 7 3 4 1013.2 1013.0 0.8
23/02:00am 24.6 28.0 20.9 80 2.4 SSE 4 7 2 4 1013.3 1013.1 0.8
23/01:30am 24.6 28.3 20.7 79 2.6 S 2 4 1 2 1013.5 1013.3 0.8
23/01:00am 24.7 28.4 20.8 79 2.6 SSE 2 6 1 3 1013.7 1013.5 0.8
23/12:30am 24.8 28.1 20.7 78 2.7 SSE 4 9 2 5 1014.0 1013.8 0.8
23/12:00am 24.9 28.0 21.0 79 2.6 SSE 6 9 3 5 1013.9 1013.7 0.8
 
Date/Time
WST
Temp
°C
App
Temp
°C
Dew
Point
Rel
Hum
%
Delta-T
°C
Wind Press
QNH
hPa
Press
MSL
hPa
Rain
since 9 am
mm
Dir
 
Spd
km/h
Gust
km/h
Spd
kts
Gust
kts
22/11:30pm 24.9 28.1 21.2 80 2.4 SE 6 11 3 6 1014.0 1013.8 0.8
22/11:00pm 24.6 28.1 21.9 85 1.8 SE 6 7 3 4 1014.2 1014.0 0.8
22/10:30pm 24.8 28.3 21.9 84 1.9 SE 6 11 3 6 1014.0 1013.8 0.8
22/10:00pm 24.6 28.0 21.7 84 1.9 ESE 6 7 3 4 1013.9 1013.7 0.8
22/09:30pm 24.8 29.0 21.7 83 2.1 SSE 2 6 1 3 1014.1 1013.9 0.8
22/09:00pm 24.6 28.6 22.1 86 1.7 SSW 4 6 2 3 1013.9 1013.7 0.8
22/08:30pm 24.9 28.5 22.0 84 1.9 SW 6 9 3 5 1014.0 1013.8 0.8
22/08:00pm 25.3 29.4 22.2 83 2.1 S 4 9 2 5 1013.6 1013.4 0.8
22/07:30pm 25.5 29.7 22.4 83 2.1 SW 4 7 2 4 1013.4 1013.2 0.8
22/07:00pm 25.8 29.4 22.1 80 2.5 SW 6 9 3 5 1013.1 1012.9 0.8
22/06:30pm 26.0 30.2 22.5 81 2.4 SSW 4 7 2 4 1012.8 1012.6 0.8
22/06:00pm 26.0 30.6 23.1 84 2.0 SSW 4 6 2 3 1012.6 1012.4 0.8
22/05:30pm 26.3 31.3 23.2 83 2.1 SSW 2 6 1 3 1012.3 1012.1 0.8
22/05:00pm 26.5 30.6 22.3 78 2.8 SSW 4 7 2 4 1011.9 1011.6 0.8
22/04:30pm 26.8 31.1 22.6 78 2.8 SE 4 7 2 4 1012.1 1011.9 0.8
22/04:00pm 26.6 31.3 23.3 82 2.3 SSW 4 7 2 4 1012.1 1011.9 0.8
22/03:30pm 27.3 32.2 23.1 78 2.9 WSW 2 6 1 3 1012.0 1011.7 0.8
22/03:00pm 26.6 31.5 23.1 81 2.4 SSW 2 6 1 3 1012.2 1012.0 0.8
22/02:30pm 25.7 30.2 23.0 85 1.8 SSE 4 9 2 5 1012.0 1011.7 0.8
22/02:00pm 24.3 27.3 22.6 90 1.1 WSW 11 19 6 10 1012.1 1011.9 0.8
22/01:30pm 25.6 26.8 21.5 78 2.7 NW 17 32 9 17 1012.8 1012.6 0.0
22/01:00pm 28.5 32.0 21.8 67 4.5 ESE 6 9 3 5 1012.4 1012.2 0.0
22/12:30pm 28.6 31.7 22.1 68 4.4 ESE 9 13 5 7 1012.6 1012.4 0.0
22/12:00pm 28.9 31.9 21.9 66 4.7 ESE 9 15 5 8 1012.9 1012.7 0.0
22/11:30am 29.1 32.6 22.8 69 4.3 ESE 9 17 5 9 1013.3 1013.1 0.0
22/11:00am 29.3 32.4 22.8 68 4.4 ESE 11 19 6 10 1013.6 1013.4 0.0
22/10:30am 29.6 31.8 21.8 63 5.3 SE 13 20 7 11 1013.7 1013.5 0.0
22/10:00am 29.3 32.1 22.3 66 4.7 ESE 11 19 6 10 1014.0 1013.8 0.0
22/09:30am 28.5 31.3 22.3 69 4.2 ESE 11 20 6 11 1014.3 1014.1 0.0
22/09:00am 28.4 31.3 22.4 70 4.1 ESE 11 19 6 10 1014.2 1014.0 0.0
22/08:30am 28.1 31.7 23.0 74 3.5 ESE 9 17 5 9 1014.2 1014.0 0.0
22/08:00am 27.4 31.2 23.4 79 2.7 ESE 9 13 5 7 1014.0 1013.8 0.0
22/07:30am 25.8 29.9 23.3 86 1.7 ESE 7 15 4 8 1013.9 1013.7 0.0
22/07:00am 24.8 28.8 22.7 88 1.4 SE 6 11 3 6 1013.6 1013.4 0.0
22/06:30am 23.7 27.6 22.5 93 0.8 ESE 6 7 3 4 1013.3 1013.1 0.0
22/06:00am 23.9 28.2 22.7 93 0.8 SE 4 9 2 5 1013.0 1012.8 0.0
22/05:30am 23.6 28.1 22.9 96 0.5 SSE 4 7 2 4 1012.6 1012.4 0.0
22/05:00am 23.3 27.6 22.6 96 0.5 SSE 4 7 2 4 1012.4 1012.2 0.0
22/04:30am 23.8 28.5 23.3 97 0.3 SSE 4 7 2 4 1012.2 1012.0 0.0
22/04:00am 23.8 28.5 23.3 97 0.3 SE 4 6 2 3 1012.1 1011.9 0.0
22/03:30am 24.2 29.1 23.7 97 0.3 S 4 7 2 4 1012.1 1011.9 0.0
22/03:00am 24.0 28.7 23.3 96 0.5 SSW 4 6 2 3 1012.1 1011.9 0.0
22/02:30am 24.5 29.7 23.6 95 0.6 SSW 2 4 1 2 1012.0 1011.7 0.0
22/02:00am 25.0 29.9 23.6 92 1.0 SSW 4 7 2 4 1012.3 1012.1 0.0
22/01:30am 25.3 30.0 23.4 89 1.3 SW 4 7 2 4 1012.5 1012.3 0.0
22/01:00am 25.6 30.4 23.5 88 1.4 SW 4 7 2 4 1012.7 1012.5 0.0
22/12:30am 25.2 29.6 23.4 90 1.2 WSW 6 9 3 5 1012.7 1012.5 0.0
22/12:00am 25.1 29.8 23.3 90 1.2 WSW 4 6 2 3 1012.7 1012.5 0.0
 
Date/Time
WST
Temp
°C
App
Temp
°C
Dew
Point
Rel
Hum
%
Delta-T
°C
Wind Press
QNH
hPa
Press
MSL
hPa
Rain
since 9 am
mm
Dir
 
Spd
km/h
Gust
km/h
Spd
kts
Gust
kts
21/11:30pm 24.8 29.3 23.0 90 1.2 SW 4 6 2 3 1013.0 1012.8 0.0
21/11:00pm 25.2 30.1 23.1 88 1.4 SW 2 6 1 3 1013.1 1012.9 0.0
21/10:30pm 25.7 30.3 23.2 86 1.7 SW 4 6 2 3 1013.2 1013.0 0.0
21/10:00pm 25.5 30.6 23.4 88 1.4 SW 2 6 1 3 1013.1 1012.9 0.0
21/09:30pm 25.5 30.2 23.4 88 1.4 WSW 4 6 2 3 1013.1 1012.9 0.0
21/09:00pm 24.8 29.5 22.7 88 1.4 SSW 2 6 1 3 1013.0 1012.8 0.0
21/08:30pm 24.9 29.5 22.4 86 1.7 SW 2 4 1 2 1012.9 1012.7 0.0
21/08:00pm 25.4 30.0 22.5 84 2.0 W 2 6 1 3 1012.7 1012.5 0.0

Other Formats:

Comma delimited format used in spreadsheet applications
http://www.bom.gov.au/fwo/IDW60801/IDW60801.99206.axf

JavaScript Object Notation format (JSON) in row-major order
http://www.bom.gov.au/fwo/IDW60801/IDW60801.99206.json